createdAt,value
2022-10-14T00:02:01.649Z,101426.03
2022-10-14T00:04:34.703Z,101430.81
2022-10-14T00:07:26.582Z,101411.91
2022-10-14T00:09:59.606Z,101401.78
2022-10-14T00:12:32.759Z,101393.44
2022-10-14T00:15:05.944Z,101393.94
2022-10-14T00:17:39.157Z,101387.19
2022-10-14T00:20:12.313Z,101378.19
2022-10-14T00:22:46.535Z,101366.00
2022-10-14T00:25:19.218Z,101361.66
2022-10-14T00:27:51.998Z,101367.53
2022-10-14T00:30:26.116Z,101360.91
2022-10-14T00:33:02.726Z,101353.81
2022-10-14T00:35:35.502Z,101347.91
2022-10-14T00:38:09.695Z,101356.16
2022-10-14T00:40:42.517Z,101361.22
2022-10-14T00:43:15.784Z,101356.94
2022-10-14T00:45:49.831Z,101357.75
2022-10-14T00:48:24.527Z,101352.75
2022-10-14T00:51:00.445Z,101351.91
2022-10-14T00:53:35.491Z,101359.72
2022-10-14T00:56:10.242Z,101354.22
2022-10-14T00:58:44.616Z,101352.75
2022-10-14T01:01:17.865Z,101359.38
2022-10-14T01:03:52.084Z,101354.34
2022-10-14T01:06:32.054Z,101360.97
2022-10-14T01:09:14.060Z,101362.59
2022-10-14T01:12:23.455Z,101355.19
2022-10-14T01:14:59.872Z,101354.41
2022-10-14T01:17:43.588Z,101348.53
2022-10-14T01:21:05.280Z,101347.81
2022-10-14T01:24:05.100Z,101350.56
2022-10-14T01:26:58.111Z,101349.41
2022-10-14T01:30:04.691Z,101356.41
2022-10-14T01:32:46.834Z,101345.44
2022-10-14T01:35:29.231Z,101338.38
2022-10-14T01:38:06.811Z,101332.88
2022-10-14T01:40:44.844Z,101329.00
2022-10-14T01:43:19.336Z,101329.03
2022-10-14T01:45:56.730Z,101327.53
2022-10-14T01:48:33.929Z,101321.28
2022-10-14T01:51:13.747Z,101310.66
2022-10-14T01:53:54.793Z,101314.19
2022-10-14T01:56:36.003Z,101314.13
2022-10-14T01:59:16.148Z,101309.06
2022-10-14T02:01:50.439Z,101322.84
2022-10-14T02:04:24.693Z,101311.06
2022-10-14T02:07:05.927Z,101310.19
2022-10-14T02:09:50.515Z,101313.34
2022-10-14T02:12:32.818Z,101318.50
2022-10-14T02:15:15.093Z,101308.78
2022-10-14T02:17:55.462Z,101304.81
2022-10-14T02:20:32.245Z,101303.25
2022-10-14T02:23:10.041Z,101301.69
2022-10-14T02:25:46.826Z,101296.97
2022-10-14T02:28:23.086Z,101291.50
2022-10-14T02:31:00.673Z,101282.00
2022-10-14T02:33:39.006Z,101282.06
2022-10-14T02:36:17.486Z,101274.63
2022-10-14T02:38:51.457Z,101277.38
2022-10-14T02:41:27.260Z,101276.25
2022-10-14T02:44:00.356Z,101265.63
2022-10-14T02:46:36.887Z,101260.94
2022-10-14T02:49:11.751Z,101255.41
2022-10-14T02:51:44.704Z,101253.81
2022-10-14T02:54:17.524Z,101252.69
2022-10-14T02:56:50.532Z,101244.81
2022-10-14T02:59:23.624Z,101241.28
2022-10-14T03:01:56.418Z,101242.06
2022-10-14T03:04:31.256Z,101234.19
2022-10-14T03:07:05.833Z,101234.97
2022-10-14T03:09:42.659Z,101235.00
2022-10-14T03:12:16.725Z,101236.59
2022-10-14T03:14:50.288Z,101232.22
2022-10-14T03:17:24.480Z,101218.47
2022-10-14T03:19:59.496Z,101216.06
2022-10-14T03:22:32.476Z,101221.97
2022-10-14T03:25:05.840Z,101223.19
2022-10-14T03:27:47.999Z,101224.78
2022-10-14T03:30:20.852Z,101209.41
2022-10-14T03:33:04.034Z,101211.38
2022-10-14T03:36:00.530Z,101201.13
2022-10-14T03:38:46.217Z,101197.19
2022-10-14T03:41:29.836Z,101195.66
2022-10-14T03:44:03.311Z,101187.38
2022-10-14T03:46:38.744Z,101194.09
2022-10-14T03:49:11.747Z,101189.34
2022-10-14T03:51:45.915Z,101184.63
2022-10-14T03:54:25.380Z,101173.59
2022-10-14T03:56:58.180Z,101182.28
2022-10-14T03:59:33.685Z,101170.47
2022-10-14T04:02:07.045Z,101170.50
2022-10-14T04:04:39.929Z,101168.13
2022-10-14T04:07:14.173Z,101170.50
2022-10-14T04:09:54.246Z,101165.75
2022-10-14T04:12:27.122Z,101169.31
2022-10-14T04:15:12.327Z,101163.44
2022-10-14T04:18:05.037Z,101165.00
2022-10-14T04:20:38.486Z,101161.06
2022-10-14T04:23:13.592Z,101159.50
2022-10-14T04:25:48.328Z,101161.84
2022-10-14T04:28:22.684Z,101157.13
2022-10-14T04:31:04.739Z,101157.53
2022-10-14T04:33:49.836Z,101157.53
2022-10-14T04:36:28.608Z,101152.41
2022-10-14T04:39:06.077Z,101152.78
2022-10-14T04:41:40.658Z,101150.03
2022-10-14T04:44:15.042Z,101148.47
2022-10-14T04:46:53.921Z,101142.94
2022-10-14T04:49:29.816Z,101142.56
2022-10-14T04:52:15.502Z,101129.56
2022-10-14T04:55:10.838Z,101124.44
2022-10-14T04:57:48.248Z,101121.28
2022-10-14T05:00:21.643Z,101113.41
2022-10-14T05:03:14.739Z,101105.13
2022-10-14T05:05:48.293Z,101112.22
2022-10-14T05:08:21.336Z,101112.22
2022-10-14T05:11:00.157Z,101117.00
2022-10-14T05:13:48.147Z,101104.38
2022-10-14T05:16:22.334Z,101099.63
2022-10-14T05:18:55.579Z,101103.97
2022-10-14T05:21:29.519Z,101099.66
2022-10-14T05:24:09.221Z,101090.97
2022-10-14T05:26:55.383Z,101088.66
2022-10-14T05:29:28.293Z,101085.50
2022-10-14T05:32:02.938Z,101087.47
2022-10-14T05:34:45.949Z,101078.41
2022-10-14T05:37:29.771Z,101080.41
2022-10-14T05:40:02.723Z,101079.59
2022-10-14T05:42:43.059Z,101078.84
2022-10-14T05:45:16.346Z,101083.53
2022-10-14T05:47:55.634Z,101084.72
2022-10-14T05:50:28.599Z,101074.47
2022-10-14T05:53:06.275Z,101075.28
2022-10-14T05:55:46.389Z,101079.22
2022-10-14T05:58:20.671Z,101075.66
2022-10-14T06:00:54.223Z,101067.41
2022-10-14T06:03:28.037Z,101069.38
2022-10-14T06:06:01.031Z,101069.78
2022-10-14T06:08:36.640Z,101067.41
2022-10-14T06:11:09.731Z,101061.50
2022-10-14T06:13:43.893Z,101062.69
2022-10-14T06:16:16.786Z,101056.75
2022-10-14T06:18:53.566Z,101069.38
2022-10-14T06:21:27.878Z,101064.66
2022-10-14T06:24:00.971Z,101061.91
2022-10-14T06:29:44.169Z,101048.47
2022-10-14T06:36:12.041Z,101042.97
2022-10-14T06:38:45.247Z,101040.59
2022-10-14T06:41:21.309Z,101054.38
2022-10-14T06:44:20.369Z,101049.25
2022-10-14T06:47:05.087Z,101051.66
2022-10-14T06:49:59.877Z,101041.41
2022-10-14T06:52:34.778Z,101045.34
2022-10-14T06:55:17.027Z,101035.88
2022-10-14T06:58:02.051Z,101031.13
2022-10-14T07:00:45.754Z,101034.69
2022-10-14T07:03:24.671Z,101033.91
2022-10-14T07:06:00.221Z,101028.78
2022-10-14T07:08:33.522Z,101024.41
2022-10-14T07:11:06.941Z,101017.69
2022-10-14T07:13:40.123Z,101020.47
2022-10-14T07:16:12.989Z,101021.25
2022-10-14T07:18:47.208Z,101014.53
2022-10-14T07:21:19.933Z,101021.66
2022-10-14T07:23:55.770Z,101036.66
2022-10-14T07:26:31.066Z,101039.03
2022-10-14T07:29:06.023Z,101037.44
2022-10-14T07:31:42.017Z,101037.84
2022-10-14T07:34:16.157Z,101028.34
2022-10-14T07:36:49.589Z,101032.31
2022-10-14T07:39:23.847Z,101032.69
2022-10-14T07:41:58.473Z,101028.75
2022-10-14T07:44:31.343Z,101039.00
2022-10-14T07:47:05.403Z,101031.91
2022-10-14T07:49:40.247Z,101033.50
2022-10-14T07:52:16.262Z,101032.69
2022-10-14T07:54:49.281Z,101038.59
2022-10-14T07:57:23.430Z,101039.78
2022-10-14T08:00:00.690Z,101040.22
2022-10-14T08:02:33.964Z,101037.81
2022-10-14T08:05:37.694Z,101031.09
2022-10-14T08:08:04.135Z,101030.72
2022-10-14T08:10:38.128Z,101022.00
2022-10-14T08:13:14.115Z,101028.69
2022-10-14T08:15:50.740Z,101020.03
2022-10-14T08:18:24.628Z,101021.63
2022-10-14T08:20:59.325Z,101019.25
2022-10-14T08:23:33.026Z,101027.94
2022-10-14T08:26:06.886Z,101025.16
2022-10-14T08:28:39.638Z,101027.13
2022-10-14T08:31:12.603Z,101023.97
2022-10-14T08:33:49.173Z,101025.53
2022-10-14T08:36:23.747Z,101023.19
2022-10-14T08:38:56.971Z,101021.16
2022-10-14T08:41:48.148Z,101025.50
2022-10-14T08:44:24.288Z,101022.38
2022-10-14T08:47:01.936Z,101017.59
2022-10-14T08:49:53.253Z,101016.78
2022-10-14T08:52:37.965Z,101012.47
2022-10-14T08:55:24.609Z,101012.47
2022-10-14T08:58:02.583Z,101007.69
2022-10-14T09:00:37.350Z,101006.88
2022-10-14T09:03:20.496Z,101006.47
2022-10-14T09:05:58.638Z,101010.81
2022-10-14T09:08:38.520Z,101006.88
2022-10-14T09:11:16.071Z,100996.22
2022-10-14T09:13:51.767Z,100997.00
2022-10-14T09:16:32.011Z,101006.81
2022-10-14T09:19:08.887Z,100996.97
2022-10-14T09:21:52.735Z,100998.94
2022-10-14T09:24:34.137Z,101004.03
2022-10-14T09:27:12.103Z,101002.91
2022-10-14T09:29:50.376Z,101002.44
2022-10-14T09:32:29.052Z,100997.69
2022-10-14T09:35:03.179Z,101009.94
2022-10-14T09:37:42.880Z,101008.34
2022-10-14T09:40:23.182Z,100999.66
2022-10-14T09:43:11.476Z,100999.22
2022-10-14T09:45:51.623Z,101001.22
2022-10-14T09:48:33.304Z,101003.91
2022-10-14T09:51:10.170Z,101003.13
2022-10-14T09:53:49.189Z,101001.91
2022-10-14T09:56:31.835Z,101012.22
2022-10-14T09:59:06.589Z,101004.69
2022-10-14T10:01:42.576Z,101004.66
2022-10-14T10:04:27.554Z,101001.50
2022-10-14T10:07:02.235Z,100998.31
2022-10-14T10:09:35.879Z,101001.50
2022-10-14T10:12:26.319Z,100998.06
2022-10-14T10:15:00.772Z,101002.00
2022-10-14T10:17:37.229Z,100995.41
2022-10-14T10:20:29.973Z,100991.22
2022-10-14T10:23:25.493Z,100997.47
2022-10-14T10:26:17.924Z,100995.06
2022-10-14T10:28:52.721Z,100984.81
2022-10-14T10:31:48.355Z,100978.06
2022-10-14T10:35:06.093Z,100983.19
2022-10-14T10:37:47.775Z,100984.81
2022-10-14T10:40:32.436Z,100982.44
2022-10-14T10:43:24.140Z,100981.63
2022-10-14T10:46:13.432Z,100979.38
2022-10-14T10:49:01.599Z,100983.69
2022-10-14T10:51:42.402Z,100990.41
2022-10-14T10:54:31.296Z,100986.41
2022-10-14T10:57:14.180Z,100984.81
2022-10-14T10:59:59.492Z,100985.28
2022-10-14T11:02:55.975Z,100982.47
2022-10-14T11:05:55.140Z,100970.47
2022-10-14T11:09:03.371Z,100969.38
2022-10-14T11:12:10.374Z,100964.56
2022-10-14T11:15:09.944Z,100961.81
2022-10-14T11:17:52.773Z,100949.91
2022-10-14T11:20:37.230Z,100944.78
2022-10-14T11:23:32.437Z,100941.81
2022-10-14T11:26:15.869Z,100941.88
2022-10-14T11:28:56.740Z,100930.31
2022-10-14T11:31:39.980Z,100931.75
2022-10-14T11:34:34.792Z,100930.69
2022-10-14T11:37:16.420Z,100933.97
2022-10-14T11:39:52.948Z,100929.19
2022-10-14T11:42:44.160Z,100918.06
2022-10-14T11:45:38.582Z,100907.28
2022-10-14T11:48:24.489Z,100904.28
2022-10-14T11:51:06.394Z,100908.31
2022-10-14T11:53:47.169Z,100908.22
2022-10-14T11:56:33.225Z,100905.34
2022-10-14T11:59:22.393Z,100904.50
2022-10-14T12:02:02.418Z,100911.25
2022-10-14T12:04:40.263Z,100898.50
2022-10-14T12:07:19.985Z,100898.84
2022-10-14T12:10:01.148Z,100912.72
2022-10-14T12:12:37.630Z,100906.72
2022-10-14T12:15:19.792Z,100912.63
2022-10-14T12:17:56.146Z,100913.56
2022-10-14T12:20:39.001Z,100915.84
2022-10-14T12:23:30.621Z,100904.81
2022-10-14T12:26:11.119Z,100909.91
2022-10-14T12:28:44.347Z,100906.31
2022-10-14T12:31:36.610Z,100902.38
2022-10-14T12:34:29.064Z,100907.06
2022-10-14T12:37:02.432Z,100905.16
2022-10-14T12:39:43.828Z,100906.31
2022-10-14T12:42:17.546Z,100907.19
2022-10-14T12:44:56.122Z,100898.91
2022-10-14T12:47:33.191Z,100911.97
2022-10-14T12:50:26.510Z,100904.03
2022-10-14T12:53:05.649Z,100891.28
2022-10-14T12:55:51.728Z,100905.44
2022-10-14T12:58:31.318Z,100903.09
2022-10-14T13:01:17.990Z,100903.16
2022-10-14T13:06:43.171Z,100909.38
2022-10-14T13:09:38.046Z,100902.09
2022-10-14T13:12:52.493Z,100917.00
2022-10-14T13:15:53.373Z,100911.78
2022-10-14T13:19:05.560Z,100905.81
2022-10-14T13:22:01.460Z,100910.03
2022-10-14T13:24:43.620Z,100908.47
2022-10-14T13:27:32.959Z,100909.56
2022-10-14T13:30:17.274Z,100915.47
2022-10-14T13:33:00.707Z,100906.41
2022-10-14T13:35:43.764Z,100916.31
2022-10-14T13:38:18.955Z,100907.13
2022-10-14T13:40:56.011Z,100893.19
2022-10-14T13:43:30.537Z,100890.00
2022-10-14T13:46:11.000Z,100893.97
2022-10-14T13:48:49.504Z,100888.13
2022-10-14T13:51:36.693Z,100879.13
2022-10-14T13:54:16.550Z,100875.53
2022-10-14T14:02:59.783Z,100879.47
2022-10-14T14:05:38.767Z,100878.00
2022-10-14T14:08:42.667Z,100879.13
2022-10-14T14:11:21.756Z,100883.53
2022-10-14T14:14:01.805Z,100878.44
2022-10-14T14:16:41.113Z,100874.91
2022-10-14T14:19:25.577Z,100883.53
2022-10-14T14:22:19.715Z,100874.88
2022-10-14T14:24:58.141Z,100872.75
2022-10-14T14:27:34.922Z,100874.78
2022-10-14T14:30:29.496Z,100877.22
2022-10-14T14:33:15.484Z,100872.56
2022-10-14T14:36:00.147Z,100867.88
2022-10-14T14:38:38.712Z,100862.34
2022-10-14T14:41:25.636Z,100861.97
2022-10-14T14:44:24.471Z,100861.00
2022-10-14T14:46:59.498Z,100860.94
2022-10-14T14:49:36.281Z,100860.25
2022-10-14T14:52:13.837Z,100847.47
2022-10-14T14:54:49.039Z,100846.34
2022-10-14T14:57:25.644Z,100849.91
2022-10-14T15:00:03.821Z,100846.88
2022-10-14T15:02:36.900Z,100846.81
2022-10-14T15:05:11.700Z,100850.00
2022-10-14T15:07:45.029Z,100842.03
2022-10-14T15:10:25.937Z,100833.47
2022-10-14T15:13:02.625Z,100837.47
2022-10-14T15:15:39.654Z,100841.50
2022-10-14T15:18:17.195Z,100830.88
2022-10-14T15:20:50.264Z,100836.84
2022-10-14T15:23:43.804Z,100836.50
2022-10-14T15:26:31.459Z,100834.16
2022-10-14T15:29:14.678Z,100823.25
2022-10-14T15:31:48.057Z,100822.47
2022-10-14T15:34:24.314Z,100811.47
2022-10-14T15:36:57.813Z,100809.19
2022-10-14T15:39:32.187Z,100804.75
2022-10-14T15:42:12.915Z,100803.31
2022-10-14T15:44:45.608Z,100806.94
2022-10-14T15:47:20.832Z,100812.03
2022-10-14T15:49:53.750Z,100815.25
2022-10-14T15:52:27.130Z,100807.34
2022-10-14T15:55:00.193Z,100806.56
2022-10-14T15:57:36.944Z,100809.28
2022-10-14T16:00:12.925Z,100798.63
2022-10-14T16:02:47.296Z,100796.34
2022-10-14T16:05:20.943Z,100798.34
2022-10-14T16:07:53.853Z,100804.66
2022-10-14T16:10:29.317Z,100811.00
2022-10-14T16:13:06.729Z,100799.66
2022-10-14T16:15:48.273Z,100801.59
2022-10-14T16:18:24.648Z,100796.88
2022-10-14T16:21:00.986Z,100800.09
2022-10-14T16:26:24.927Z,100793.00
2022-10-14T16:29:02.579Z,100795.78
2022-10-14T16:31:35.829Z,100789.28
2022-10-14T16:34:11.246Z,100788.94
2022-10-14T16:36:48.971Z,100789.59
2022-10-14T16:39:24.512Z,100788.16
2022-10-14T16:44:47.448Z,100780.91
2022-10-14T16:47:26.185Z,100782.63
2022-10-14T16:50:27.820Z,100789.78
2022-10-14T16:53:20.160Z,100781.47
2022-10-14T16:56:03.935Z,100779.91
2022-10-14T17:01:42.498Z,100779.53
2022-10-14T17:04:27.357Z,100779.91
2022-10-14T17:07:13.057Z,100775.59
2022-10-14T17:09:54.407Z,100780.78
2022-10-14T17:12:41.991Z,100789.81
2022-10-14T17:15:20.846Z,100787.91
2022-10-14T17:18:12.486Z,100793.44
2022-10-14T17:20:53.842Z,100784.78
2022-10-14T17:23:36.062Z,100793.88
2022-10-14T17:26:15.251Z,100797.91
2022-10-14T17:29:06.527Z,100797.94
2022-10-14T17:31:52.713Z,100795.94
2022-10-14T17:34:29.808Z,100794.38
2022-10-14T17:39:55.800Z,100785.31
2022-10-14T17:42:56.307Z,100783.38
2022-10-14T17:45:48.713Z,100788.50
2022-10-14T17:48:31.125Z,100787.78
2022-10-14T17:51:14.414Z,100783.88
2022-10-14T17:54:01.832Z,100770.47
2022-10-14T17:56:50.149Z,100756.97
2022-10-14T17:59:26.394Z,100763.72
2022-10-14T18:02:14.760Z,100763.31
2022-10-14T18:04:51.801Z,100749.56
2022-10-14T18:07:36.244Z,100758.63
2022-10-14T18:10:17.242Z,100768.13
2022-10-14T18:12:51.882Z,100763.41
2022-10-14T18:15:31.030Z,100760.66
2022-10-14T18:18:04.964Z,100758.25
2022-10-14T18:20:41.159Z,100754.69
2022-10-14T18:23:19.497Z,100754.78
2022-10-14T18:29:05.385Z,100751.66
2022-10-14T18:31:43.031Z,100747.72
2022-10-14T18:34:22.448Z,100763.22
2022-10-14T18:36:58.545Z,100763.63
2022-10-14T18:39:36.075Z,100765.56
2022-10-14T18:42:22.446Z,100772.31
2022-10-14T18:45:02.200Z,100763.63
2022-10-14T18:48:19.191Z,100757.69
2022-10-14T18:51:32.098Z,100754.19
2022-10-14T18:54:12.005Z,100753.00
2022-10-14T18:56:53.557Z,100752.16
2022-10-14T18:59:55.842Z,100762.84
2022-10-14T19:02:36.435Z,100752.56
2022-10-14T19:05:18.131Z,100749.44
2022-10-14T19:08:01.039Z,100742.38
2022-10-14T19:10:35.648Z,100746.34
2022-10-14T19:13:12.176Z,100753.91
2022-10-14T19:16:00.740Z,100751.13
2022-10-14T19:18:34.077Z,100746.03
2022-10-14T19:21:10.076Z,100746.03
2022-10-14T19:23:45.106Z,100753.13
2022-10-14T19:26:26.761Z,100757.53
2022-10-14T19:29:11.480Z,100751.63
2022-10-14T19:31:47.001Z,100751.63
2022-10-14T19:35:05.737Z,100742.56
2022-10-14T19:37:41.753Z,100740.59
2022-10-14T19:40:23.831Z,100756.03
2022-10-14T19:43:06.438Z,100750.13
2022-10-14T19:45:45.745Z,100742.63
2022-10-14T19:48:25.151Z,100748.97
2022-10-14T19:51:07.264Z,100747.41
2022-10-14T19:53:43.533Z,100740.69
2022-10-14T19:56:26.088Z,100744.25
2022-10-14T19:59:03.331Z,100732.41
2022-10-14T20:01:44.144Z,100730.81
2022-10-14T20:04:23.936Z,100725.31
2022-10-14T20:07:00.521Z,100725.66
2022-10-14T20:09:45.120Z,100718.63
2022-10-14T20:12:22.161Z,100723.34
2022-10-14T20:14:59.751Z,100723.34
2022-10-14T20:17:43.893Z,100722.28
2022-10-14T20:20:20.175Z,100725.84
2022-10-14T20:22:56.708Z,100718.22
2022-10-14T20:25:30.101Z,100716.75
2022-10-14T20:28:05.870Z,100721.09
2022-10-14T20:30:42.554Z,100713.59
2022-10-14T20:33:19.413Z,100720.63
2022-10-14T20:36:01.107Z,100719.06
2022-10-14T20:38:45.296Z,100717.56
2022-10-14T20:41:24.481Z,100707.00
2022-10-14T20:43:58.680Z,100717.25
2022-10-14T20:46:35.994Z,100713.75
2022-10-14T20:49:12.600Z,100708.94
2022-10-14T20:51:45.852Z,100712.16
2022-10-14T20:54:22.669Z,100711.00
2022-10-14T20:57:03.869Z,100708.16
2022-10-14T20:59:44.036Z,100714.50
2022-10-14T21:02:23.841Z,100716.91
2022-10-14T21:05:01.702Z,100712.16
2022-10-14T21:07:38.078Z,100720.91
2022-10-14T21:10:13.880Z,100724.47
2022-10-14T21:12:48.875Z,100726.44
2022-10-14T21:15:27.004Z,100720.50
2022-10-14T21:18:00.442Z,100720.50
2022-10-14T21:20:37.071Z,100717.75
2022-10-14T21:23:10.237Z,100720.09
2022-10-14T21:25:46.395Z,100716.91
2022-10-14T21:28:22.243Z,100714.97
2022-10-14T21:31:04.474Z,100712.94
2022-10-14T21:33:38.172Z,100705.13
2022-10-14T21:36:18.130Z,100700.38
2022-10-14T21:38:57.008Z,100712.16
2022-10-14T21:41:30.484Z,100699.53
2022-10-14T21:44:03.749Z,100694.78
2022-10-14T21:46:36.929Z,100694.03
2022-10-14T21:49:12.235Z,100695.59
2022-10-14T21:51:57.666Z,100690.88
2022-10-14T21:54:32.517Z,100693.22
2022-10-14T21:57:14.574Z,100684.56
2022-10-14T21:59:58.210Z,100686.16
2022-10-14T22:02:33.830Z,100679.84
2022-10-14T22:05:10.025Z,100681.47
2022-10-14T22:07:44.592Z,100681.81
2022-10-14T22:10:41.103Z,100679.09
2022-10-14T22:13:37.928Z,100667.59
2022-10-14T22:16:11.452Z,100678.28
2022-10-14T22:18:46.781Z,100679.16
2022-10-14T22:21:22.643Z,100681.88
2022-10-14T22:23:58.482Z,100684.28
2022-10-14T22:26:32.778Z,100678.72
2022-10-14T22:29:12.337Z,100667.28
2022-10-14T22:31:46.438Z,100675.56
2022-10-14T22:34:20.884Z,100674.38
2022-10-14T22:36:53.871Z,100672.41
2022-10-14T22:39:28.316Z,100665.28
2022-10-14T22:42:02.460Z,100663.38
2022-10-14T22:44:35.528Z,100662.53
2022-10-14T22:47:11.276Z,100664.94
2022-10-14T22:49:44.247Z,100662.16
2022-10-14T22:52:19.528Z,100662.16
2022-10-14T22:54:53.937Z,100656.28
2022-10-14T22:57:28.598Z,100657.03
2022-10-14T23:00:01.601Z,100658.63
2022-10-14T23:02:34.656Z,100653.94
2022-10-14T23:05:08.954Z,100648.41
2022-10-14T23:07:42.006Z,100648.81
2022-10-14T23:10:16.968Z,100639.78
2022-10-14T23:12:49.847Z,100643.31
2022-10-14T23:15:22.770Z,100649.63
2022-10-14T23:17:55.821Z,100638.56
2022-10-14T23:20:28.800Z,100638.56
2022-10-14T23:23:03.007Z,100645.34
2022-10-14T23:25:41.186Z,100649.28
2022-10-14T23:28:15.907Z,100645.34
2022-10-14T23:30:49.170Z,100644.59
2022-10-14T23:33:24.404Z,100646.19
2022-10-14T23:36:03.865Z,100643.38
2022-10-14T23:38:37.411Z,100643.81
2022-10-14T23:41:13.662Z,100632.00
2022-10-14T23:43:52.774Z,100647.78
2022-10-14T23:46:34.681Z,100642.66
2022-10-14T23:49:24.975Z,100643.81
2022-10-14T23:51:59.431Z,100642.25
2022-10-14T23:54:34.863Z,100640.22
2022-10-14T23:57:11.987Z,100643.81
2022-10-14T23:59:44.878Z,100635.53
